Zanesville, OH

6:30 AM EDT on May 27, 2015 (GMT -0400)
APRSWXNET | | Change Station
CLOSE
Current Station
Personal Weather Station
Location: Zanesville, OH
Elevation: 839 ft
Nearby Weather Stations

Elev 839 ft 39.95 °N, 82.00 °W | Updated 56 minutes ago

Overcast
Overcast
65 °F
Feels Like 65 °F
N
1
Wind Variable Wind from SSW
Gusts 0.0 mph

Today
High -- | Low -- °F
--% Chance of Precip.
Yesterday
High -- | Low -- °F
Precip. -- in
6:03 AM 8:46 PM
Waxing Gibbous, 66% visible
Pressure 30.07 in
Visibility 9.0 miles
Clouds Overcast 1100 ft
Dew Point 65 °F
Humidity 100%
Rainfall in
Snow Depth Not available.
UV 0 out of 12
Pollen 6.30 out of 12
Air Quality Not available.
Flu Activity Local Activity
METAR KZZV 270953Z AUTO 21004KT 9SM OVC011 19/17 A3009 RMK AO2 SLP182 T01890172

More Conditions Fewer Conditions

Pressure 30.07 in
Visibility 9.0 miles
Clouds Overcast 1100 ft
Dew Point 65 °F
Humidity 100%
Rainfall in
Snow Depth Not available.
UV 0 out of 12
Pollen 6.30 out of 12
Air Quality Not available.
Flu Activity Local Activity
METAR KZZV 270953Z AUTO 21004KT 9SM OVC011 19/17 A3009 RMK AO2 SLP182 T01890172

More Conditions Fewer Conditions

10-Day Weather Forecast

Almanac

Astronomy

May. 27, 2015 Rise Set
Actual Time
Civil Twilight
Nautical Twilight
Astronomical Twilight
Moon
Length of Visible Light
Length of Day
Tomorrow will be .
, % of the Moon is Illuminated

Today's Extremes

State Highs State Lows

Community

WunderPhotos

Upload Photos

1,824,635 photos uploaded!

WunderBlogs® & News

Nearby

Air Quality

  Air Quality AQ Index Pollutant
Not available.

Snow Depth

Station Depth Elevation

Earthquake Activity

City Distance Mag. Time & Date
Minimum magnitude displayed is 2.5.

Coastal Water Temperatures

Place Temperature

Stations

Nearby Weather Stations

Station Location Temp. Windchill Dew Point Humidity Wind Precip. Elev Updated Type